createdAt,value
2023-04-10T00:00:38.099Z,3.03
2023-04-10T00:03:06.000Z,3.27
2023-04-10T00:05:33.298Z,3.10
2023-04-10T00:08:01.788Z,3.20
2023-04-10T00:10:31.734Z,3.10
2023-04-10T00:13:00.745Z,3.10
2023-04-10T00:15:28.715Z,3.07
2023-04-10T00:17:55.908Z,3.13
2023-04-10T00:20:26.091Z,3.17
2023-04-10T00:22:53.212Z,3.10
2023-04-10T00:25:22.872Z,3.10
2023-04-10T00:27:50.544Z,3.10
2023-04-10T00:30:18.063Z,3.03
2023-04-10T00:32:45.654Z,3.00
2023-04-10T00:35:13.099Z,3.10
2023-04-10T00:37:41.395Z,3.10
2023-04-10T00:40:09.412Z,3.13
2023-04-10T00:42:37.218Z,3.10
2023-04-10T00:45:04.974Z,3.10
2023-04-10T00:47:32.612Z,3.10
2023-04-10T00:50:00.264Z,3.07
2023-04-10T00:52:27.842Z,3.07
2023-04-10T00:54:55.535Z,3.03
2023-04-10T00:57:23.082Z,3.03
2023-04-10T00:59:53.010Z,3.07
2023-04-10T01:02:21.453Z,3.10
2023-04-10T01:04:49.292Z,3.13
2023-04-10T01:07:44.191Z,3.07
2023-04-10T01:10:36.924Z,3.07
2023-04-10T01:13:28.150Z,3.00
2023-04-10T01:16:51.521Z,3.10
2023-04-10T01:20:00.148Z,3.07
2023-04-10T01:23:00.744Z,3.03
2023-04-10T01:25:56.440Z,3.10
2023-04-10T01:29:00.316Z,3.20
2023-04-10T01:31:38.955Z,3.10
2023-04-10T01:34:18.536Z,3.10
2023-04-10T01:37:05.336Z,3.20
2023-04-10T01:39:40.010Z,3.10
2023-04-10T01:42:11.919Z,3.10
2023-04-10T01:44:44.435Z,3.10
2023-04-10T01:47:17.879Z,3.13
2023-04-10T01:49:47.730Z,3.03
2023-04-10T01:52:17.275Z,3.03
2023-04-10T01:54:50.415Z,3.13
2023-04-10T01:57:24.839Z,3.07
2023-04-10T01:59:58.591Z,3.03
2023-04-10T02:02:30.991Z,3.13
2023-04-10T02:04:58.243Z,3.10
2023-04-10T02:07:46.817Z,3.10
2023-04-10T02:10:45.263Z,3.00
2023-04-10T02:13:16.148Z,3.10
2023-04-10T02:15:47.200Z,3.10
2023-04-10T02:18:17.896Z,3.00
2023-04-10T02:20:46.176Z,3.00
2023-04-10T02:23:16.860Z,3.03
2023-04-10T02:25:44.312Z,3.10
2023-04-10T02:28:11.791Z,3.03
2023-04-10T02:30:39.314Z,3.10
2023-04-10T02:33:06.424Z,3.00
2023-04-10T02:35:35.061Z,3.07
2023-04-10T02:38:04.205Z,3.10
2023-04-10T02:40:36.973Z,3.07
2023-04-10T02:43:13.000Z,3.03
2023-04-10T02:45:41.695Z,3.17
2023-04-10T02:48:11.085Z,3.10
2023-04-10T02:50:38.872Z,3.00
2023-04-10T02:53:06.482Z,3.03
2023-04-10T02:55:33.985Z,3.13
2023-04-10T02:58:01.209Z,3.03
2023-04-10T03:00:28.939Z,3.10
2023-04-10T03:03:09.441Z,3.10
2023-04-10T03:05:46.748Z,3.20
2023-04-10T03:08:19.254Z,3.30
2023-04-10T03:10:50.975Z,3.10
2023-04-10T03:13:18.526Z,3.17
2023-04-10T03:15:45.615Z,3.13
2023-04-10T03:18:13.211Z,3.27
2023-04-10T03:20:44.927Z,3.17
2023-04-10T03:23:12.286Z,3.10
2023-04-10T03:25:39.720Z,3.10
2023-04-10T03:28:08.509Z,3.23
2023-04-10T03:30:36.994Z,3.23
2023-04-10T03:33:04.713Z,3.10
2023-04-10T03:35:32.003Z,3.10
2023-04-10T03:38:00.240Z,3.20
2023-04-10T03:40:27.395Z,3.10
2023-04-10T03:42:55.042Z,3.17
2023-04-10T03:45:22.161Z,3.27
2023-04-10T03:47:49.732Z,3.20
2023-04-10T03:50:17.342Z,3.20
2023-04-10T03:52:52.574Z,3.20
2023-04-10T03:55:22.482Z,3.20
2023-04-10T03:57:52.387Z,3.10
2023-04-10T04:00:24.913Z,3.10
2023-04-10T04:03:01.024Z,3.20
2023-04-10T04:05:46.512Z,3.20
2023-04-10T04:08:24.864Z,3.13
2023-04-10T04:11:11.801Z,3.10
2023-04-10T04:14:05.145Z,3.20
2023-04-10T04:16:51.195Z,3.07
2023-04-10T04:19:33.360Z,3.10
2023-04-10T04:22:24.264Z,3.10
2023-04-10T04:25:10.964Z,3.10
2023-04-10T04:27:55.913Z,3.07
2023-04-10T04:30:43.271Z,3.17
2023-04-10T04:33:18.976Z,3.07
2023-04-10T04:36:04.892Z,3.10
2023-04-10T04:38:48.691Z,3.03
2023-04-10T04:41:32.237Z,3.00
2023-04-10T04:44:25.595Z,3.00
2023-04-10T04:47:17.621Z,3.00
2023-04-10T04:49:59.543Z,3.00
2023-04-10T04:52:57.452Z,3.00
2023-04-10T04:55:41.776Z,3.00
2023-04-10T04:58:21.092Z,3.00
2023-04-10T05:01:08.688Z,3.00
2023-04-10T05:03:55.267Z,3.00
2023-04-10T05:07:00.884Z,3.00
2023-04-10T05:09:39.637Z,3.07
2023-04-10T05:12:16.443Z,3.00
2023-04-10T05:14:53.203Z,2.97
2023-04-10T05:17:29.652Z,3.00
2023-04-10T05:20:10.380Z,3.00
2023-04-10T05:23:17.389Z,3.10
2023-04-10T05:25:55.520Z,2.97
2023-04-10T05:28:42.261Z,3.10
2023-04-10T05:31:29.068Z,3.03
2023-04-10T05:34:08.053Z,2.97
2023-04-10T05:37:12.803Z,3.00
2023-04-10T05:39:50.462Z,2.90
2023-04-10T05:42:40.595Z,2.90
2023-04-10T05:45:21.648Z,2.90
2023-04-10T05:48:07.721Z,2.90
2023-04-10T05:50:41.417Z,2.97
2023-04-10T05:53:32.100Z,3.00
2023-04-10T05:56:17.864Z,3.10
2023-04-10T05:59:12.287Z,3.00
2023-04-10T06:01:58.289Z,2.87
2023-04-10T06:04:26.290Z,2.80
2023-04-10T06:06:57.130Z,2.87
2023-04-10T06:09:25.635Z,2.87
2023-04-10T06:11:57.578Z,2.87
2023-04-10T06:14:26.374Z,3.00
2023-04-10T06:16:53.462Z,2.90
2023-04-10T06:19:20.980Z,2.93
2023-04-10T06:21:48.376Z,2.87
2023-04-10T06:24:16.550Z,2.90
2023-04-10T06:26:47.718Z,3.00
2023-04-10T06:29:15.326Z,2.90
2023-04-10T06:31:42.800Z,2.97
2023-04-10T06:34:10.309Z,3.00
2023-04-10T06:36:38.988Z,2.87
2023-04-10T06:39:07.042Z,2.90
2023-04-10T06:41:36.201Z,2.90
2023-04-10T06:44:16.138Z,2.80
2023-04-10T06:46:43.380Z,2.77
2023-04-10T06:49:11.455Z,2.80
2023-04-10T06:51:39.005Z,2.70
2023-04-10T06:54:06.098Z,2.90
2023-04-10T06:56:33.665Z,2.90
2023-04-10T06:59:00.724Z,2.90
2023-04-10T07:01:28.583Z,2.80
2023-04-10T07:03:56.545Z,2.80
2023-04-10T07:06:28.758Z,2.67
2023-04-10T07:08:56.605Z,2.80
2023-04-10T07:11:24.086Z,2.83
2023-04-10T07:13:53.964Z,2.80
2023-04-10T07:16:22.173Z,2.90
2023-04-10T07:18:49.648Z,2.93
2023-04-10T07:21:17.096Z,2.80
2023-04-10T07:23:44.131Z,2.70
2023-04-10T07:26:11.603Z,2.63
2023-04-10T07:28:39.078Z,2.70
2023-04-10T07:31:08.279Z,2.70
2023-04-10T07:33:36.389Z,3.00
2023-04-10T07:36:05.914Z,2.70
2023-04-10T07:38:33.577Z,2.73
2023-04-10T07:41:01.089Z,2.60
2023-04-10T07:43:28.162Z,2.57
2023-04-10T07:45:57.012Z,2.50
2023-04-10T07:48:24.713Z,2.50
2023-04-10T07:50:53.548Z,2.47
2023-04-10T07:53:21.209Z,2.57
2023-04-10T07:55:50.740Z,2.50
2023-04-10T07:58:17.804Z,2.50
2023-04-10T08:03:46.423Z,2.63
2023-04-10T08:06:14.188Z,2.60
2023-04-10T08:08:42.620Z,2.57
2023-04-10T08:11:44.247Z,2.53
2023-04-10T08:14:11.357Z,2.60
2023-04-10T08:16:39.363Z,2.60
2023-04-10T08:19:06.499Z,2.50
2023-04-10T08:21:33.513Z,2.30
2023-04-10T08:24:03.667Z,2.40
2023-04-10T08:26:30.928Z,2.60
2023-04-10T08:29:00.686Z,2.40
2023-04-10T08:31:29.699Z,2.37
2023-04-10T08:33:57.588Z,2.27
2023-04-10T08:36:26.983Z,2.30
2023-04-10T08:38:54.083Z,2.40
2023-04-10T08:41:22.236Z,2.30
2023-04-10T08:43:50.880Z,2.30
2023-04-10T08:46:17.983Z,2.30
2023-04-10T08:49:01.759Z,2.30
2023-04-10T08:51:56.110Z,2.20
2023-04-10T08:54:28.192Z,2.20
2023-04-10T08:56:58.398Z,2.30
2023-04-10T08:59:25.961Z,2.30
2023-04-10T09:01:53.887Z,2.17
2023-04-10T09:04:22.109Z,2.20
2023-04-10T09:06:49.698Z,2.07
2023-04-10T09:09:17.535Z,2.10
2023-04-10T09:11:56.616Z,2.20
2023-04-10T09:14:28.316Z,2.20
2023-04-10T09:17:13.486Z,2.20
2023-04-10T09:19:41.082Z,2.30
2023-04-10T09:22:09.771Z,2.20
2023-04-10T09:24:43.719Z,2.20
2023-04-10T09:27:11.413Z,2.17
2023-04-10T09:29:51.547Z,2.17
2023-04-10T09:32:57.441Z,2.27
2023-04-10T09:35:37.224Z,2.20
2023-04-10T09:38:20.613Z,2.20
2023-04-10T09:40:49.609Z,2.17
2023-04-10T09:43:27.248Z,2.30
2023-04-10T09:45:59.589Z,2.20
2023-04-10T09:48:27.868Z,2.13
2023-04-10T09:50:58.022Z,2.07
2023-04-10T09:53:25.857Z,2.20
2023-04-10T09:55:52.873Z,2.10
2023-04-10T09:58:22.310Z,2.20
2023-04-10T10:00:50.436Z,2.10
2023-04-10T10:03:22.640Z,2.10
2023-04-10T10:05:51.730Z,2.10
2023-04-10T10:08:19.950Z,2.10
2023-04-10T10:10:54.927Z,2.10
2023-04-10T10:13:44.503Z,2.10
2023-04-10T10:16:34.523Z,2.03
2023-04-10T10:19:31.616Z,1.97
2023-04-10T10:22:01.852Z,2.07
2023-04-10T10:24:32.019Z,2.00
2023-04-10T10:27:02.451Z,2.23
2023-04-10T10:29:32.853Z,2.30
2023-04-10T10:32:03.985Z,2.20
2023-04-10T10:34:31.849Z,2.27
2023-04-10T10:36:59.911Z,2.10
2023-04-10T10:40:09.398Z,2.20
2023-04-10T10:42:56.219Z,2.20
2023-04-10T10:45:40.367Z,2.10
2023-04-10T10:48:08.325Z,1.90
2023-04-10T10:50:52.521Z,2.00
2023-04-10T10:53:45.000Z,1.90
2023-04-10T10:56:26.549Z,1.90
2023-04-10T10:58:59.647Z,1.83
2023-04-10T11:01:27.429Z,1.87
2023-04-10T11:03:55.111Z,1.80
2023-04-10T11:06:53.350Z,1.70
2023-04-10T11:09:52.581Z,1.80
2023-04-10T11:12:24.328Z,1.90
2023-04-10T11:15:02.954Z,1.90
2023-04-10T11:17:54.164Z,1.87
2023-04-10T11:20:25.656Z,1.80
2023-04-10T11:23:13.084Z,1.87
2023-04-10T11:25:55.652Z,2.00
2023-04-10T11:28:37.513Z,2.00
2023-04-10T11:31:23.058Z,1.90
2023-04-10T11:33:58.584Z,2.00
2023-04-10T11:36:27.459Z,2.27
2023-04-10T11:38:56.437Z,2.10
2023-04-10T11:41:36.596Z,2.10
2023-04-10T11:44:13.724Z,2.00
2023-04-10T11:46:46.648Z,2.00
2023-04-10T11:49:25.988Z,2.10
2023-04-10T11:51:57.043Z,2.03
2023-04-10T11:54:31.895Z,2.10
2023-04-10T11:57:09.931Z,2.17
2023-04-10T11:59:37.058Z,2.10
2023-04-10T12:02:14.655Z,2.10
2023-04-10T12:04:47.317Z,1.97
2023-04-10T12:07:15.326Z,1.90
2023-04-10T12:09:42.755Z,1.90
2023-04-10T12:12:09.816Z,2.13
2023-04-10T12:14:42.050Z,1.97
2023-04-10T12:17:11.865Z,1.97
2023-04-10T12:19:40.199Z,2.00
2023-04-10T12:22:07.901Z,1.90
2023-04-10T12:24:54.079Z,2.10
2023-04-10T12:27:27.686Z,1.90
2023-04-10T12:29:57.745Z,1.90
2023-04-10T12:32:27.472Z,1.90
2023-04-10T12:35:01.177Z,1.90
2023-04-10T12:37:52.212Z,1.80
2023-04-10T12:40:22.796Z,1.90
2023-04-10T12:42:50.305Z,1.90
2023-04-10T12:45:17.710Z,2.00
2023-04-10T12:47:53.637Z,2.03
2023-04-10T12:50:21.322Z,2.20
2023-04-10T12:53:07.519Z,2.10
2023-04-10T12:55:35.153Z,2.17
2023-04-10T12:58:18.314Z,2.10
2023-04-10T13:00:46.666Z,2.03
2023-04-10T13:03:14.306Z,2.10
2023-04-10T13:05:41.894Z,2.03
2023-04-10T13:08:08.931Z,2.10
2023-04-10T13:10:38.171Z,2.17
2023-04-10T13:13:06.939Z,2.20
2023-04-10T13:15:34.835Z,2.30
2023-04-10T13:18:05.241Z,2.20
2023-04-10T13:20:40.869Z,2.40
2023-04-10T13:23:08.837Z,2.30
2023-04-10T13:25:39.997Z,2.20
2023-04-10T13:28:11.313Z,2.57
2023-04-10T13:30:41.591Z,2.67
2023-04-10T13:33:10.233Z,2.70
2023-04-10T13:35:39.975Z,2.40
2023-04-10T13:38:09.083Z,2.33
2023-04-10T13:40:36.623Z,2.40
2023-04-10T13:43:06.179Z,2.37
2023-04-10T13:45:34.715Z,2.50
2023-04-10T13:48:02.217Z,2.50
2023-04-10T13:50:29.327Z,2.50
2023-04-10T13:52:56.868Z,2.50
2023-04-10T13:55:24.390Z,2.73
2023-04-10T13:57:52.064Z,2.87
2023-04-10T14:00:19.641Z,2.60
2023-04-10T14:02:46.777Z,2.57
2023-04-10T14:05:14.401Z,2.70
2023-04-10T14:07:41.984Z,2.60
2023-04-10T14:10:10.490Z,2.40
2023-04-10T14:12:38.027Z,2.37
2023-04-10T14:15:06.575Z,2.40
2023-04-10T14:17:34.729Z,2.33
2023-04-10T14:20:02.267Z,2.40
2023-04-10T14:22:31.540Z,2.37
2023-04-10T14:25:11.730Z,2.60
2023-04-10T14:27:39.910Z,2.40
2023-04-10T14:30:08.580Z,2.50
2023-04-10T14:32:36.116Z,2.50
2023-04-10T14:35:04.552Z,2.43
2023-04-10T14:37:32.351Z,2.57
2023-04-10T14:39:59.792Z,2.43
2023-04-10T14:42:27.337Z,2.57
2023-04-10T14:44:54.821Z,2.70
2023-04-10T14:47:23.667Z,2.33
2023-04-10T14:49:50.807Z,2.30
2023-04-10T14:52:18.633Z,2.30
2023-04-10T14:54:46.098Z,2.60
2023-04-10T14:57:14.956Z,2.40
2023-04-10T14:59:42.740Z,2.40
2023-04-10T15:02:10.257Z,2.17
2023-04-10T15:04:37.821Z,2.10
2023-04-10T15:07:05.531Z,2.10
2023-04-10T15:09:33.282Z,2.20
2023-04-10T15:12:01.685Z,2.10
2023-04-10T15:14:29.132Z,2.10
2023-04-10T15:16:56.589Z,2.10
2023-04-10T15:19:24.154Z,2.13
2023-04-10T15:21:51.694Z,2.20
2023-04-10T15:24:19.225Z,2.17
2023-04-10T15:26:47.089Z,2.10
2023-04-10T15:29:14.457Z,2.10
2023-04-10T15:31:42.550Z,2.20
2023-04-10T15:34:10.095Z,2.20
2023-04-10T15:36:37.570Z,2.13
2023-04-10T15:39:05.436Z,2.20
2023-04-10T15:41:33.020Z,2.10
2023-04-10T15:44:00.629Z,2.10
2023-04-10T15:46:32.246Z,2.03
2023-04-10T15:49:00.782Z,2.07
2023-04-10T15:51:28.282Z,2.07
2023-04-10T15:53:56.041Z,2.30
2023-04-10T15:56:23.655Z,2.20
2023-04-10T15:58:51.164Z,2.20
2023-04-10T16:01:18.570Z,2.10
2023-04-10T16:03:46.500Z,2.13
2023-04-10T16:06:14.122Z,2.23
2023-04-10T16:08:41.596Z,2.30
2023-04-10T16:11:09.058Z,2.40
2023-04-10T16:13:39.490Z,2.60
2023-04-10T16:16:15.363Z,2.80
2023-04-10T16:18:44.789Z,2.80
2023-04-10T16:21:16.984Z,3.10
2023-04-10T16:23:44.621Z,2.93
2023-04-10T16:26:12.139Z,3.00
2023-04-10T16:28:39.557Z,2.90
2023-04-10T16:31:07.302Z,2.70
2023-04-10T16:33:34.874Z,2.43
2023-04-10T16:36:04.962Z,2.60
2023-04-10T16:38:34.479Z,2.60
2023-04-10T16:41:06.177Z,2.60
2023-04-10T16:43:33.629Z,2.47
2023-04-10T16:46:01.368Z,2.40
2023-04-10T16:48:29.061Z,2.70
2023-04-10T16:50:58.709Z,2.50
2023-04-10T16:53:25.770Z,2.50
2023-04-10T16:56:01.959Z,2.60
2023-04-10T16:58:31.198Z,2.60
2023-04-10T17:00:58.709Z,2.67
2023-04-10T17:03:26.919Z,2.47
2023-04-10T17:05:54.467Z,2.60
2023-04-10T17:08:21.945Z,2.40
2023-04-10T17:10:49.363Z,2.50
2023-04-10T17:13:18.265Z,2.50
2023-04-10T17:15:47.316Z,2.50
2023-04-10T17:18:15.041Z,2.50
2023-04-10T17:20:42.613Z,2.50
2023-04-10T17:23:11.246Z,2.50
2023-04-10T17:25:44.942Z,2.60
2023-04-10T17:28:12.641Z,2.47
2023-04-10T17:30:41.206Z,2.50
2023-04-10T17:33:08.862Z,2.50
2023-04-10T17:35:36.294Z,2.67
2023-04-10T17:38:04.733Z,2.50
2023-04-10T17:40:32.601Z,2.50
2023-04-10T17:43:00.066Z,2.40
2023-04-10T17:45:27.515Z,2.57
2023-04-10T17:47:55.072Z,2.60
2023-04-10T17:50:22.555Z,2.57
2023-04-10T17:52:49.666Z,2.53
2023-04-10T17:55:20.428Z,2.57
2023-04-10T17:57:48.944Z,2.50
2023-04-10T18:00:20.035Z,2.50
2023-04-10T18:02:49.062Z,2.70
2023-04-10T18:05:16.378Z,2.70
2023-04-10T18:07:43.907Z,2.60
2023-04-10T18:10:11.712Z,2.60
2023-04-10T18:12:42.311Z,2.70
2023-04-10T18:15:10.378Z,2.80
2023-04-10T18:17:39.412Z,2.60
2023-04-10T18:20:08.357Z,2.60
2023-04-10T18:22:35.507Z,2.83
2023-04-10T18:25:03.047Z,2.70
2023-04-10T18:27:31.632Z,2.60
2023-04-10T18:29:59.158Z,2.73
2023-04-10T18:32:26.407Z,2.63
2023-04-10T18:34:54.067Z,2.70
2023-04-10T18:37:21.140Z,2.60
2023-04-10T18:39:48.731Z,2.60
2023-04-10T18:42:16.221Z,2.80
2023-04-10T18:44:43.725Z,2.60
2023-04-10T18:47:11.315Z,2.60
2023-04-10T18:49:38.993Z,2.70
2023-04-10T18:52:07.372Z,2.80
2023-04-10T18:54:35.368Z,2.70
2023-04-10T18:57:02.656Z,2.70
2023-04-10T18:59:30.410Z,2.60
2023-04-10T19:01:57.424Z,2.60
2023-04-10T19:04:25.211Z,2.70
2023-04-10T19:06:52.566Z,2.60
2023-04-10T19:09:19.803Z,2.70
2023-04-10T19:11:47.484Z,2.70
2023-04-10T19:14:16.584Z,2.70
2023-04-10T19:16:44.024Z,2.70
2023-04-10T19:19:11.516Z,2.60
2023-04-10T19:21:38.979Z,2.77
2023-04-10T19:24:06.615Z,2.60
2023-04-10T19:26:34.168Z,2.70
2023-04-10T19:29:01.679Z,2.70
2023-04-10T19:31:29.602Z,2.53
2023-04-10T19:33:57.809Z,2.70
2023-04-10T19:36:27.014Z,2.63
2023-04-10T19:38:57.157Z,2.60
2023-04-10T19:41:25.963Z,2.70
2023-04-10T19:43:54.031Z,2.60
2023-04-10T19:46:22.173Z,2.70
2023-04-10T19:48:49.906Z,2.70
2023-04-10T19:51:17.567Z,2.70
2023-04-10T19:53:45.269Z,2.60
2023-04-10T19:56:12.785Z,2.60
2023-04-10T19:58:41.588Z,2.53
2023-04-10T20:01:13.033Z,2.63
2023-04-10T20:03:40.391Z,2.60
2023-04-10T20:06:08.417Z,2.60
2023-04-10T20:08:36.282Z,2.60
2023-04-10T20:11:06.019Z,2.70
2023-04-10T20:13:34.493Z,2.67
2023-04-10T20:16:02.995Z,2.60
2023-04-10T20:18:32.111Z,2.70
2023-04-10T20:20:59.317Z,2.70
2023-04-10T20:23:26.841Z,2.67
2023-04-10T20:25:53.961Z,2.60
2023-04-10T20:28:21.545Z,2.63
2023-04-10T20:30:48.607Z,2.70
2023-04-10T20:33:16.109Z,2.60
2023-04-10T20:35:43.557Z,2.70
2023-04-10T20:38:11.801Z,2.70
2023-04-10T20:40:41.569Z,2.57
2023-04-10T20:43:12.014Z,2.57
2023-04-10T20:45:40.404Z,2.60
2023-04-10T20:48:09.133Z,2.70
2023-04-10T20:50:39.764Z,2.70
2023-04-10T20:53:07.303Z,2.60
2023-04-10T20:55:38.757Z,2.60
2023-04-10T20:58:06.834Z,2.60
2023-04-10T21:00:35.155Z,2.80
2023-04-10T21:03:05.522Z,2.80
2023-04-10T21:05:33.250Z,2.77
2023-04-10T21:08:01.127Z,2.60
2023-04-10T21:10:28.769Z,2.70
2023-04-10T21:12:56.169Z,2.80
2023-04-10T21:15:23.656Z,2.77
2023-04-10T21:17:50.695Z,2.70
2023-04-10T21:20:18.177Z,2.63
2023-04-10T21:22:45.663Z,2.70
2023-04-10T21:25:13.135Z,2.70
2023-04-10T21:27:40.665Z,2.73
2023-04-10T21:30:08.793Z,2.77
2023-04-10T21:32:35.837Z,2.70
2023-04-10T21:35:03.345Z,2.67
2023-04-10T21:37:30.903Z,2.77
2023-04-10T21:39:58.361Z,2.67
2023-04-10T21:42:25.784Z,2.80
2023-04-10T21:44:54.564Z,2.60
2023-04-10T21:47:21.636Z,2.77
2023-04-10T21:49:49.070Z,2.63
2023-04-10T21:52:16.640Z,2.87
2023-04-10T21:54:44.111Z,2.80
2023-04-10T21:57:11.543Z,2.60
2023-04-10T21:59:39.272Z,2.77
2023-04-10T22:02:07.075Z,2.90
2023-04-10T22:04:34.715Z,2.83
2023-04-10T22:07:05.490Z,2.73
2023-04-10T22:09:33.164Z,2.87
2023-04-10T22:12:00.728Z,2.80
2023-04-10T22:14:27.808Z,2.87
2023-04-10T22:16:56.524Z,2.80
2023-04-10T22:19:25.590Z,2.90
2023-04-10T22:21:53.019Z,3.00
2023-04-10T22:24:20.226Z,2.70
2023-04-10T22:26:47.331Z,3.17
2023-04-10T22:29:14.497Z,3.03
2023-04-10T22:31:43.865Z,2.77
2023-04-10T22:34:11.315Z,3.00
2023-04-10T22:36:38.363Z,2.90
2023-04-10T22:39:05.943Z,2.87
2023-04-10T22:41:33.531Z,2.90
2023-04-10T22:44:00.630Z,2.90
2023-04-10T22:46:28.097Z,2.90
2023-04-10T22:48:56.816Z,2.83
2023-04-10T22:51:24.501Z,2.87
2023-04-10T22:53:51.563Z,3.10
2023-04-10T22:56:19.624Z,2.90
2023-04-10T22:58:47.084Z,2.90
2023-04-10T23:01:14.665Z,2.87
2023-04-10T23:03:42.154Z,3.03
2023-04-10T23:06:09.799Z,2.83
2023-04-10T23:08:37.176Z,3.00
2023-04-10T23:11:04.714Z,2.90
2023-04-10T23:13:32.140Z,2.80
2023-04-10T23:15:59.661Z,2.70
2023-04-10T23:18:27.219Z,2.80
2023-04-10T23:20:54.660Z,2.73
2023-04-10T23:23:22.082Z,2.70
2023-04-10T23:26:01.075Z,2.80
2023-04-10T23:28:29.174Z,2.80
2023-04-10T23:30:56.236Z,2.70
2023-04-10T23:33:24.335Z,2.80
2023-04-10T23:35:51.815Z,2.70
2023-04-10T23:38:19.359Z,2.80
2023-04-10T23:40:47.571Z,2.73
2023-04-10T23:43:14.688Z,2.70
2023-04-10T23:45:42.126Z,2.73
2023-04-10T23:48:10.749Z,2.80
2023-04-10T23:50:38.054Z,2.80
2023-04-10T23:53:08.479Z,2.70
2023-04-10T23:55:36.547Z,2.80
2023-04-10T23:58:04.404Z,2.70
